Accueil
METAR-TAF:

METAR-TAF

Aéroports :

Cologne, Allemagne

Aéroport Cologne/Bonn

latitude: 50-52N, longitude: 007-10E, altitude: 91 m

Observation

Le bulletin a été fait il y a 39 minutes, à 08:20 UTC
Vent 5 kt de direction variable
Température 8°C
Humidité 66%
Pression 1016 hPa
Visibilité 10 km ou plus
Quelques nuages à une hauteur de 2800 ft

METAR: EDDK 270820Z VRB05KT 9999 FEW028 08/02 Q1016 NOSIG

Heure: 10:59 (08:59 UTC)

Prévision

Le bulletin a été fait il y a 3 heures et 59 minutes, à 05:00 UTC
Prévision valable du 27 à 06 UTC au 28 à 12 UTC
Vent 3 kt de direction variable
Visibilité 10 km ou plus
Nuages épars à une hauteur de 4000 ft
Evoluant progressivement
du 27 à 08 UTC au 27 à 10 UTC
Vent 8 kt de nord-ouest
Evoluant progressivement
du 27 à 18 UTC au 27 à 20 UTC
Vent 3 kt de direction variable

TAF: EDDK 270500Z 2706/2812 VRB03KT 9999 SCT040 BECMG 2708/2710 31008KT BECMG 2718/2720 VRB03KT

Observations et prévisions météorologiques de plus de 4000 aéroports (messages METAR et TAF).

Les stations disponibles sont représentées par des disques jaunes et rouges sur la carte.

Passer la souris dessus pour voir le nom de la station.

Cliquer dessus pour voir les observations et prévisions météorologiques.

Pour changer de carte: cliquez sur les boutons verts avec une croix noire pour zoomer, sur le bouton vert avec un tiret pour effectuer un zoom arrière, ou sur les flèches vertes pour les cartes adjacentes.


METAR-TAF: